createdAt,value
2024-04-19T00:01:09.537Z,97534.00
2024-04-19T00:03:39.996Z,97532.00
2024-04-19T00:06:07.655Z,97527.00
2024-04-19T00:08:38.106Z,97526.00
2024-04-19T00:11:05.783Z,97528.00
2024-04-19T00:13:36.320Z,97527.00
2024-04-19T00:16:04.146Z,97528.00
2024-04-19T00:18:37.031Z,97520.00
2024-04-19T00:21:05.180Z,97517.00
2024-04-19T00:23:35.269Z,97533.00
2024-04-19T00:26:02.815Z,97533.00
2024-04-19T00:28:42.425Z,97521.00
2024-04-19T00:31:09.815Z,97535.00
2024-04-19T00:33:42.724Z,97516.00
2024-04-19T00:36:10.374Z,97527.00
2024-04-19T00:38:40.639Z,97533.00
2024-04-19T00:41:08.092Z,97523.00
2024-04-19T00:43:38.203Z,97526.00
2024-04-19T00:46:06.661Z,97518.00
2024-04-19T00:48:37.309Z,97519.00
2024-04-19T00:51:09.809Z,97517.00
2024-04-19T00:53:40.453Z,97526.00
2024-04-19T00:56:27.297Z,97522.00
2024-04-19T00:58:57.713Z,97501.00
2024-04-19T01:01:26.544Z,97516.00
2024-04-19T01:03:58.069Z,97503.00
2024-04-19T01:06:28.277Z,97521.00
2024-04-19T01:08:58.541Z,97490.00
2024-04-19T01:11:32.214Z,97495.00
2024-04-19T01:14:02.404Z,97504.00
2024-04-19T01:16:29.905Z,97516.00
2024-04-19T01:19:00.069Z,97498.00
2024-04-19T01:21:30.652Z,97509.00
2024-04-19T01:24:15.676Z,97490.00
2024-04-19T01:26:45.731Z,97492.00
2024-04-19T01:29:15.924Z,97511.00
2024-04-19T01:31:43.407Z,97487.00
2024-04-19T01:34:13.566Z,97496.00
2024-04-19T01:36:41.046Z,97497.00
2024-04-19T01:39:11.409Z,97494.00
2024-04-19T01:41:38.880Z,97485.00
2024-04-19T01:44:11.625Z,97495.00
2024-04-19T01:46:39.002Z,97484.00
2024-04-19T01:49:09.327Z,97480.00
2024-04-19T01:51:36.776Z,97484.00
2024-04-19T01:54:06.998Z,97479.00
2024-04-19T01:56:34.737Z,97473.00
2024-04-19T01:59:04.948Z,97479.00
2024-04-19T02:01:35.286Z,97470.00
2024-04-19T02:04:06.809Z,97478.00
2024-04-19T02:06:34.284Z,97473.00
2024-04-19T02:09:06.850Z,97468.00
2024-04-19T02:11:34.326Z,97481.00
2024-04-19T02:14:04.370Z,97471.00
2024-04-19T02:16:34.430Z,97475.00
2024-04-19T02:19:04.875Z,97468.00
2024-04-19T02:21:32.506Z,97465.00
2024-04-19T02:24:04.725Z,97462.00
2024-04-19T02:26:33.559Z,97455.00
2024-04-19T02:29:24.988Z,97456.00
2024-04-19T02:31:57.618Z,97458.00
2024-04-19T02:34:27.681Z,97443.00
2024-04-19T02:36:57.818Z,97453.00
2024-04-19T02:39:27.947Z,97437.00
2024-04-19T02:41:58.520Z,97428.00
2024-04-19T02:44:50.734Z,97427.00
2024-04-19T02:47:23.402Z,97432.00
2024-04-19T02:49:53.419Z,97422.00
2024-04-19T02:52:23.434Z,97411.00
2024-04-19T02:54:53.548Z,97415.00
2024-04-19T02:57:23.678Z,97407.00
2024-04-19T02:59:54.020Z,97418.00
2024-04-19T03:02:26.604Z,97411.00
2024-04-19T03:04:56.716Z,97404.00
2024-04-19T03:07:26.759Z,97401.00
2024-04-19T03:09:56.897Z,97405.00
2024-04-19T03:12:26.883Z,97401.00
2024-04-19T03:14:56.871Z,97393.00
2024-04-19T03:17:29.542Z,97394.00
2024-04-19T03:19:59.616Z,97392.00
2024-04-19T03:22:29.806Z,97387.00
2024-04-19T03:24:59.761Z,97389.00
2024-04-19T03:27:29.804Z,97383.00
2024-04-19T03:30:01.019Z,97381.00
2024-04-19T03:32:33.753Z,97380.00
2024-04-19T03:35:03.804Z,97378.00
2024-04-19T03:37:33.872Z,97368.00
2024-04-19T03:40:04.526Z,97358.00
2024-04-19T03:42:34.756Z,97354.00
2024-04-19T03:45:20.576Z,97354.00
2024-04-19T03:47:53.295Z,97354.00
2024-04-19T03:50:23.693Z,97356.00
2024-04-19T03:52:54.629Z,97351.00
2024-04-19T03:55:24.728Z,97354.00
2024-04-19T03:57:55.139Z,97351.00
2024-04-19T04:00:26.973Z,97344.00
2024-04-19T04:02:59.700Z,97341.00
2024-04-19T04:05:29.970Z,97334.00
2024-04-19T04:08:00.067Z,97328.00
2024-04-19T04:10:30.174Z,97340.00
2024-04-19T04:13:00.483Z,97329.00
2024-04-19T04:15:30.702Z,97334.00
2024-04-19T04:18:03.975Z,97333.00
2024-04-19T04:20:34.260Z,97319.00
2024-04-19T04:23:04.584Z,97323.00
2024-04-19T04:25:37.592Z,97327.00
2024-04-19T04:28:08.456Z,97325.00
2024-04-19T04:30:42.428Z,97327.00
2024-04-19T04:33:15.932Z,97323.00
2024-04-19T04:35:47.895Z,97308.00
2024-04-19T04:38:17.946Z,97314.00
2024-04-19T04:40:47.994Z,97302.00
2024-04-19T04:43:18.211Z,97319.00
2024-04-19T04:45:49.163Z,97323.00
2024-04-19T04:48:22.036Z,97315.00
2024-04-19T04:50:52.073Z,97313.00
2024-04-19T04:53:22.465Z,97315.00
2024-04-19T04:55:53.327Z,97327.00
2024-04-19T04:58:23.636Z,97308.00
2024-04-19T05:00:54.062Z,97310.00
2024-04-19T05:03:26.787Z,97314.00
2024-04-19T05:05:56.737Z,97299.00
2024-04-19T05:08:26.841Z,97315.00
2024-04-19T05:10:56.987Z,97305.00
2024-04-19T05:13:28.128Z,97305.00
2024-04-19T05:15:58.351Z,97300.00
2024-04-19T05:18:31.079Z,97308.00
2024-04-19T05:21:01.643Z,97286.00
2024-04-19T05:23:31.705Z,97290.00
2024-04-19T05:26:05.982Z,97273.00
2024-04-19T05:28:36.032Z,97275.00
2024-04-19T05:31:06.138Z,97281.00
2024-04-19T05:33:38.738Z,97283.00
2024-04-19T05:36:09.863Z,97283.00
2024-04-19T05:38:39.924Z,97277.00
2024-04-19T05:41:10.155Z,97269.00
2024-04-19T05:43:40.264Z,97272.00
2024-04-19T05:46:10.312Z,97262.00
2024-04-19T05:48:43.036Z,97264.00
2024-04-19T05:51:13.162Z,97280.00
2024-04-19T05:53:43.190Z,97267.00
2024-04-19T05:56:13.283Z,97270.00
2024-04-19T05:58:43.425Z,97268.00
2024-04-19T06:01:13.798Z,97244.00
2024-04-19T06:03:47.289Z,97247.00
2024-04-19T06:06:17.394Z,97248.00
2024-04-19T06:08:47.715Z,97244.00
2024-04-19T06:11:18.082Z,97231.00
2024-04-19T06:13:48.640Z,97248.00
2024-04-19T06:16:18.823Z,97223.00
2024-04-19T06:18:51.577Z,97231.00
2024-04-19T06:21:21.766Z,97262.00
2024-04-19T06:23:51.815Z,97244.00
2024-04-19T06:26:21.946Z,97240.00
2024-04-19T06:28:51.839Z,97253.00
2024-04-19T06:31:22.182Z,97241.00
2024-04-19T06:33:55.124Z,97240.00
2024-04-19T06:36:25.171Z,97247.00
2024-04-19T06:38:55.690Z,97239.00
2024-04-19T06:41:25.669Z,97241.00
2024-04-19T06:43:53.071Z,97232.00
2024-04-19T06:46:23.057Z,97227.00
2024-04-19T06:48:55.924Z,97230.00
2024-04-19T06:51:26.017Z,97221.00
2024-04-19T06:53:55.967Z,97232.00
2024-04-19T06:56:26.029Z,97218.00
2024-04-19T06:58:56.076Z,97211.00
2024-04-19T07:01:26.192Z,97224.00
2024-04-19T07:03:58.919Z,97211.00
2024-04-19T07:06:38.474Z,97225.00
2024-04-19T07:09:14.864Z,97200.00
2024-04-19T07:11:44.908Z,97198.00
2024-04-19T07:14:14.953Z,97201.00
2024-04-19T07:16:45.021Z,97194.00
2024-04-19T07:19:17.671Z,97197.00
2024-04-19T07:21:47.846Z,97193.00
2024-04-19T07:24:17.948Z,97184.00
2024-04-19T07:26:47.918Z,97187.00
2024-04-19T07:29:17.933Z,97180.00
2024-04-19T07:31:48.114Z,97183.00
2024-04-19T07:34:22.475Z,97178.00
2024-04-19T07:36:52.589Z,97170.00
2024-04-19T07:39:22.930Z,97159.00
2024-04-19T07:41:52.984Z,97167.00
2024-04-19T07:44:23.584Z,97170.00
2024-04-19T07:46:53.549Z,97165.00
2024-04-19T07:49:26.524Z,97151.00
2024-04-19T07:51:56.948Z,97147.00
2024-04-19T07:54:27.072Z,97138.00
2024-04-19T07:56:57.329Z,97135.00
2024-04-19T07:59:27.385Z,97127.00
2024-04-19T08:01:57.508Z,97131.00
2024-04-19T08:04:30.347Z,97113.00
2024-04-19T08:07:00.520Z,97120.00
2024-04-19T08:09:31.558Z,97130.00
2024-04-19T08:12:03.768Z,97111.00
2024-04-19T08:14:33.746Z,97117.00
2024-04-19T08:17:04.010Z,97120.00
2024-04-19T08:19:36.664Z,97112.00
2024-04-19T08:22:07.254Z,97106.00
2024-04-19T08:24:37.301Z,97109.00
2024-04-19T08:27:07.796Z,97100.00
2024-04-19T08:29:38.050Z,97092.00
2024-04-19T08:32:10.575Z,97081.00
2024-04-19T08:34:43.701Z,97093.00
2024-04-19T08:37:14.036Z,97083.00
2024-04-19T08:39:46.543Z,97078.00
2024-04-19T08:42:20.321Z,97078.00
2024-04-19T08:44:52.940Z,97065.00
2024-04-19T08:47:23.395Z,97057.00
2024-04-19T08:49:58.344Z,97061.00
2024-04-19T08:52:50.516Z,97049.00
2024-04-19T08:55:24.082Z,97051.00
2024-04-19T08:57:54.578Z,97042.00
2024-04-19T09:00:24.844Z,97038.00
2024-04-19T09:02:55.365Z,97032.00
2024-04-19T09:05:28.075Z,97039.00
2024-04-19T09:07:58.286Z,97031.00
2024-04-19T09:10:29.274Z,97027.00
2024-04-19T09:12:59.575Z,97029.00
2024-04-19T09:15:31.500Z,97015.00
2024-04-19T09:18:02.090Z,97037.00
2024-04-19T09:20:34.831Z,97015.00
2024-04-19T09:23:04.828Z,97007.00
2024-04-19T09:25:35.054Z,96996.00
2024-04-19T09:28:05.382Z,96993.00
2024-04-19T09:30:35.886Z,96988.00
2024-04-19T09:33:06.161Z,96988.00
2024-04-19T09:35:39.493Z,96983.00
2024-04-19T09:38:12.293Z,96972.00
2024-04-19T09:40:48.863Z,96972.00
2024-04-19T09:43:23.321Z,96973.00
2024-04-19T09:46:00.208Z,96964.00
2024-04-19T09:48:33.629Z,96948.00
2024-04-19T09:51:13.435Z,96945.00
2024-04-19T09:53:50.730Z,96953.00
2024-04-19T09:56:40.588Z,96940.00
2024-04-19T09:59:11.350Z,96924.00
2024-04-19T10:01:42.306Z,96929.00
2024-04-19T10:04:14.827Z,96941.00
2024-04-19T10:06:48.342Z,96931.00
2024-04-19T10:09:21.189Z,96921.00
2024-04-19T10:11:54.911Z,96917.00
2024-04-19T10:14:25.787Z,96912.00
2024-04-19T10:16:59.265Z,96907.00
2024-04-19T10:19:42.477Z,96912.00
2024-04-19T10:22:27.095Z,96910.00
2024-04-19T10:25:02.437Z,96899.00
2024-04-19T10:27:33.303Z,96902.00
2024-04-19T10:30:03.940Z,96900.00
2024-04-19T10:32:33.925Z,96892.00
2024-04-19T10:35:05.301Z,96879.00
2024-04-19T10:37:37.934Z,96900.00
2024-04-19T10:40:09.982Z,96889.00
2024-04-19T10:42:42.069Z,96868.00
2024-04-19T10:45:16.247Z,96873.00
2024-04-19T10:47:47.258Z,96872.00
2024-04-19T10:50:18.007Z,96864.00
2024-04-19T10:52:50.541Z,96859.00
2024-04-19T10:55:20.763Z,96854.00
2024-04-19T10:57:50.878Z,96846.00
2024-04-19T11:00:21.009Z,96845.00
2024-04-19T11:02:59.289Z,96848.00
2024-04-19T11:05:37.331Z,96835.00
2024-04-19T11:08:10.686Z,96850.00
2024-04-19T11:10:41.541Z,96836.00
2024-04-19T11:13:13.064Z,96828.00
2024-04-19T11:15:52.087Z,96842.00
2024-04-19T11:18:29.663Z,96823.00
2024-04-19T11:21:07.954Z,96827.00
2024-04-19T11:23:44.606Z,96819.00
2024-04-19T11:26:18.325Z,96822.00
2024-04-19T11:28:50.152Z,96821.00
2024-04-19T11:31:20.420Z,96811.00
2024-04-19T11:33:57.388Z,96825.00
2024-04-19T11:36:28.678Z,96812.00
2024-04-19T11:39:01.646Z,96805.00
2024-04-19T11:41:32.226Z,96798.00
2024-04-19T11:44:03.936Z,96785.00
2024-04-19T11:46:35.300Z,96779.00
2024-04-19T11:49:06.741Z,96763.00
2024-04-19T11:51:38.458Z,96772.00
2024-04-19T11:54:11.367Z,96777.00
2024-04-19T11:56:41.731Z,96773.00
2024-04-19T11:59:11.789Z,96772.00
2024-04-19T12:01:41.786Z,96760.00
2024-04-19T12:04:12.030Z,96755.00
2024-04-19T12:06:42.636Z,96750.00
2024-04-19T12:09:15.994Z,96758.00
2024-04-19T12:12:19.401Z,96748.00
2024-04-19T12:15:23.410Z,96759.00
2024-04-19T12:17:30.270Z,96756.00
2024-04-19T12:20:08.079Z,96751.00
2024-04-19T12:22:53.434Z,96744.00
2024-04-19T12:25:32.592Z,96759.00
2024-04-19T12:28:03.102Z,96748.00
2024-04-19T12:30:33.326Z,96739.00
2024-04-19T12:33:03.956Z,96722.00
2024-04-19T12:35:36.306Z,96722.00
2024-04-19T12:38:06.599Z,96727.00
2024-04-19T12:40:42.826Z,96723.00
2024-04-19T12:43:15.776Z,96725.00
2024-04-19T12:45:50.858Z,96711.00
2024-04-19T12:48:22.377Z,96708.00
2024-04-19T12:50:52.629Z,96702.00
2024-04-19T12:53:23.510Z,96688.00
2024-04-19T12:55:56.546Z,96701.00
2024-04-19T12:58:26.974Z,96712.00
2024-04-19T13:01:02.629Z,96687.00
2024-04-19T13:03:33.364Z,96677.00
2024-04-19T13:06:03.604Z,96677.00
2024-04-19T13:08:33.660Z,96666.00
2024-04-19T13:11:06.961Z,96663.00
2024-04-19T13:13:54.031Z,96667.00
2024-04-19T13:16:24.777Z,96658.00
2024-04-19T13:18:55.610Z,96674.00
2024-04-19T13:21:28.505Z,96657.00
2024-04-19T13:23:59.426Z,96639.00
2024-04-19T13:26:32.326Z,96652.00
2024-04-19T13:29:02.546Z,96642.00
2024-04-19T13:31:34.034Z,96647.00
2024-04-19T13:34:04.171Z,96640.00
2024-04-19T13:36:34.324Z,96634.00
2024-04-19T13:39:04.422Z,96631.00
2024-04-19T13:41:37.086Z,96623.00
2024-04-19T13:44:07.473Z,96630.00
2024-04-19T13:46:37.529Z,96631.00
2024-04-19T13:49:07.826Z,96618.00
2024-04-19T13:51:37.955Z,96615.00
2024-04-19T13:54:10.107Z,96621.00
2024-04-19T13:56:43.634Z,96614.00
2024-04-19T13:59:15.584Z,96590.00
2024-04-19T14:01:45.738Z,96594.00
2024-04-19T14:04:16.149Z,96598.00
2024-04-19T14:06:46.542Z,96589.00
2024-04-19T14:09:16.603Z,96587.00
2024-04-19T14:11:49.399Z,96601.00
2024-04-19T14:14:21.235Z,96571.00
2024-04-19T14:16:53.087Z,96591.00
2024-04-19T14:19:23.661Z,96571.00
2024-04-19T14:21:53.842Z,96573.00
2024-04-19T14:24:24.273Z,96560.00
2024-04-19T14:26:56.963Z,96560.00
2024-04-19T14:29:27.088Z,96554.00
2024-04-19T14:31:57.197Z,96553.00
2024-04-19T14:34:27.195Z,96563.00
2024-04-19T14:36:57.352Z,96543.00
2024-04-19T14:39:27.470Z,96555.00
2024-04-19T14:42:00.194Z,96551.00
2024-04-19T14:44:30.250Z,96554.00
2024-04-19T14:47:02.080Z,96538.00
2024-04-19T14:49:32.473Z,96547.00
2024-04-19T14:52:12.365Z,96540.00
2024-04-19T14:54:44.757Z,96530.00
2024-04-19T14:57:18.132Z,96530.00
2024-04-19T14:59:48.183Z,96513.00
2024-04-19T15:02:18.429Z,96511.00
2024-04-19T15:04:48.781Z,96527.00
2024-04-19T15:07:18.940Z,96515.00
2024-04-19T15:09:48.982Z,96525.00
2024-04-19T15:12:22.667Z,96527.00
2024-04-19T15:14:52.951Z,96527.00
2024-04-19T15:17:23.256Z,96521.00
2024-04-19T15:19:53.319Z,96510.00
2024-04-19T15:22:23.584Z,96505.00
2024-04-19T15:24:53.794Z,96498.00
2024-04-19T15:27:26.519Z,96497.00
2024-04-19T15:29:57.087Z,96503.00
2024-04-19T15:32:27.377Z,96501.00
2024-04-19T15:34:57.730Z,96485.00
2024-04-19T15:37:27.841Z,96516.00
2024-04-19T15:39:59.035Z,96498.00
2024-04-19T15:42:31.961Z,96491.00
2024-04-19T15:45:02.323Z,96492.00
2024-04-19T15:47:32.686Z,96491.00
2024-04-19T15:50:02.896Z,96484.00
2024-04-19T15:52:32.981Z,96487.00
2024-04-19T15:55:03.212Z,96489.00
2024-04-19T15:57:36.775Z,96494.00
2024-04-19T16:00:08.239Z,96486.00
2024-04-19T16:02:38.221Z,96492.00
2024-04-19T16:05:08.795Z,96476.00
2024-04-19T16:07:38.961Z,96473.00
2024-04-19T16:10:09.823Z,96489.00
2024-04-19T16:12:42.452Z,96468.00
2024-04-19T16:15:14.078Z,96470.00
2024-04-19T16:17:45.100Z,96471.00
2024-04-19T16:20:17.679Z,96472.00
2024-04-19T16:22:48.081Z,96463.00
2024-04-19T16:25:18.424Z,96455.00
2024-04-19T16:27:51.234Z,96469.00
2024-04-19T16:30:21.375Z,96469.00
2024-04-19T16:32:56.821Z,96467.00
2024-04-19T16:35:27.197Z,96473.00
2024-04-19T16:37:57.513Z,96467.00
2024-04-19T16:40:27.583Z,96460.00
2024-04-19T16:43:01.065Z,96454.00
2024-04-19T16:45:31.838Z,96457.00
2024-04-19T16:48:03.038Z,96455.00
2024-04-19T16:50:33.327Z,96457.00
2024-04-19T16:53:03.375Z,96465.00
2024-04-19T16:55:33.434Z,96457.00
2024-04-19T16:58:06.164Z,96455.00
2024-04-19T17:00:33.712Z,96453.00
2024-04-19T17:03:03.731Z,96461.00
2024-04-19T17:05:35.518Z,96463.00
2024-04-19T17:08:06.790Z,96459.00
2024-04-19T17:10:37.880Z,96467.00
2024-04-19T17:13:10.864Z,96472.00
2024-04-19T17:15:41.133Z,96465.00
2024-04-19T17:18:11.308Z,96465.00
2024-04-19T17:20:42.189Z,96463.00
2024-04-19T17:23:13.127Z,96470.00
2024-04-19T17:25:43.393Z,96467.00
2024-04-19T17:28:20.025Z,96464.00
2024-04-19T17:30:50.835Z,96469.00
2024-04-19T17:33:21.392Z,96464.00
2024-04-19T17:35:52.274Z,96461.00
2024-04-19T17:38:22.314Z,96450.00
2024-04-19T17:40:52.349Z,96458.00
2024-04-19T17:43:25.094Z,96464.00
2024-04-19T17:45:55.332Z,96446.00
2024-04-19T17:48:26.084Z,96468.00
2024-04-19T17:50:56.668Z,96454.00
2024-04-19T17:53:26.830Z,96453.00
2024-04-19T17:55:57.229Z,96447.00
2024-04-19T17:58:29.989Z,96446.00
2024-04-19T18:01:00.293Z,96450.00
2024-04-19T18:03:30.532Z,96459.00
2024-04-19T18:06:00.606Z,96447.00
2024-04-19T18:08:30.686Z,96448.00
2024-04-19T18:11:01.257Z,96466.00
2024-04-19T18:13:34.516Z,96451.00
2024-04-19T18:16:04.688Z,96462.00
2024-04-19T18:18:34.835Z,96463.00
2024-04-19T18:21:07.770Z,96471.00
2024-04-19T18:23:37.982Z,96459.00
2024-04-19T18:26:08.305Z,96472.00
2024-04-19T18:28:41.048Z,96464.00
2024-04-19T18:31:11.099Z,96455.00
2024-04-19T18:33:43.385Z,96445.00
2024-04-19T18:36:13.414Z,96451.00
2024-04-19T18:38:43.458Z,96456.00
2024-04-19T18:41:13.426Z,96452.00
2024-04-19T18:43:46.002Z,96454.00
2024-04-19T18:46:16.160Z,96475.00
2024-04-19T18:48:46.258Z,96471.00
2024-04-19T18:51:16.541Z,96458.00
2024-04-19T18:53:46.537Z,96469.00
2024-04-19T18:56:16.596Z,96466.00
2024-04-19T18:58:49.225Z,96473.00
2024-04-19T19:01:19.910Z,96465.00
2024-04-19T19:03:50.536Z,96470.00
2024-04-19T19:06:21.524Z,96473.00
2024-04-19T19:08:51.966Z,96480.00
2024-04-19T19:11:22.318Z,96479.00
2024-04-19T19:13:55.271Z,96493.00
2024-04-19T19:16:25.340Z,96492.00
2024-04-19T19:18:55.413Z,96495.00
2024-04-19T19:21:27.809Z,96494.00
2024-04-19T19:23:58.483Z,96504.00
2024-04-19T19:26:28.688Z,96505.00
2024-04-19T19:29:04.161Z,96503.00
2024-04-19T19:31:34.259Z,96504.00
2024-04-19T19:34:04.344Z,96505.00
2024-04-19T19:36:34.295Z,96502.00
2024-04-19T19:39:05.511Z,96528.00
2024-04-19T19:41:35.520Z,96524.00
2024-04-19T19:44:11.105Z,96515.00
2024-04-19T19:46:43.032Z,96537.00
2024-04-19T19:49:13.098Z,96522.00
2024-04-19T19:51:43.754Z,96524.00
2024-04-19T19:54:14.081Z,96541.00
2024-04-19T19:56:45.636Z,96527.00
2024-04-19T19:59:30.952Z,96531.00
2024-04-19T20:02:17.143Z,96529.00
2024-04-19T20:05:03.731Z,96529.00
2024-04-19T20:07:34.127Z,96534.00
2024-04-19T20:10:04.498Z,96529.00
2024-04-19T20:12:35.545Z,96539.00
2024-04-19T20:15:09.838Z,96538.00
2024-04-19T20:17:40.228Z,96545.00
2024-04-19T20:20:11.287Z,96545.00
2024-04-19T20:22:42.161Z,96553.00
2024-04-19T20:25:12.617Z,96563.00
2024-04-19T20:27:42.924Z,96563.00
2024-04-19T20:30:16.043Z,96568.00
2024-04-19T20:32:46.313Z,96565.00
2024-04-19T20:35:16.335Z,96565.00
2024-04-19T20:37:46.338Z,96559.00
2024-04-19T20:40:16.394Z,96564.00
2024-04-19T20:42:46.738Z,96562.00
2024-04-19T20:45:19.612Z,96570.00
2024-04-19T20:47:49.714Z,96565.00
2024-04-19T20:50:20.143Z,96571.00
2024-04-19T20:52:51.550Z,96587.00
2024-04-19T20:55:23.514Z,96596.00
2024-04-19T20:57:53.667Z,96578.00
2024-04-19T21:00:27.016Z,96597.00
2024-04-19T21:02:57.220Z,96585.00
2024-04-19T21:05:27.410Z,96592.00
2024-04-19T21:07:57.503Z,96598.00
2024-04-19T21:10:27.830Z,96607.00
2024-04-19T21:12:58.138Z,96617.00
2024-04-19T21:15:32.313Z,96601.00
2024-04-19T21:18:02.426Z,96608.00
2024-04-19T21:20:35.811Z,96620.00
2024-04-19T21:23:06.525Z,96625.00
2024-04-19T21:25:41.760Z,96622.00
2024-04-19T21:28:11.934Z,96615.00
2024-04-19T21:30:44.994Z,96629.00
2024-04-19T21:33:15.078Z,96639.00
2024-04-19T21:35:45.165Z,96631.00
2024-04-19T21:38:15.177Z,96634.00
2024-04-19T21:40:45.286Z,96642.00
2024-04-19T21:43:16.529Z,96631.00
2024-04-19T21:45:46.849Z,96637.00
2024-04-19T21:48:16.939Z,96642.00
2024-04-19T21:50:47.021Z,96648.00
2024-04-19T21:53:17.154Z,96642.00
2024-04-19T21:55:48.560Z,96647.00
2024-04-19T21:58:18.763Z,96648.00
2024-04-19T22:00:51.784Z,96636.00
2024-04-19T22:03:22.110Z,96633.00
2024-04-19T22:05:52.164Z,96655.00
2024-04-19T22:08:22.437Z,96642.00
2024-04-19T22:10:52.480Z,96658.00
2024-04-19T22:13:22.467Z,96660.00
2024-04-19T22:15:55.350Z,96650.00
2024-04-19T22:18:25.569Z,96656.00
2024-04-19T22:21:06.828Z,96643.00
2024-04-19T22:23:36.886Z,96651.00
2024-04-19T22:26:09.124Z,96642.00
2024-04-19T22:28:40.910Z,96651.00
2024-04-19T22:31:13.707Z,96639.00
2024-04-19T22:33:44.052Z,96653.00
2024-04-19T22:36:14.192Z,96639.00
2024-04-19T22:38:44.277Z,96638.00
2024-04-19T22:41:14.306Z,96651.00
2024-04-19T22:43:44.831Z,96661.00
2024-04-19T22:46:17.539Z,96661.00
2024-04-19T22:48:47.813Z,96662.00
2024-04-19T22:51:17.815Z,96655.00
2024-04-19T22:53:47.823Z,96657.00
2024-04-19T22:56:17.881Z,96665.00
2024-04-19T22:58:49.506Z,96662.00
2024-04-19T23:01:22.501Z,96681.00
2024-04-19T23:03:52.589Z,96680.00
2024-04-19T23:06:22.844Z,96671.00
2024-04-19T23:08:53.162Z,96672.00
2024-04-19T23:11:23.731Z,96677.00
2024-04-19T23:13:54.489Z,96681.00
2024-04-19T23:16:27.451Z,96674.00
2024-04-19T23:18:58.561Z,96676.00
2024-04-19T23:21:29.032Z,96680.00
2024-04-19T23:24:00.392Z,96675.00
2024-04-19T23:26:30.775Z,96669.00
2024-04-19T23:29:04.733Z,96678.00
2024-04-19T23:31:38.573Z,96684.00
2024-04-19T23:34:09.267Z,96666.00
2024-04-19T23:36:39.901Z,96670.00
2024-04-19T23:39:11.444Z,96676.00
2024-04-19T23:41:41.502Z,96670.00
2024-04-19T23:44:11.805Z,96672.00
2024-04-19T23:46:47.860Z,96661.00
2024-04-19T23:49:17.958Z,96667.00
2024-04-19T23:51:48.042Z,96670.00
2024-04-19T23:54:19.691Z,96678.00
2024-04-19T23:56:49.822Z,96667.00
2024-04-19T23:59:19.831Z,96668.00
